Time;durP1;ratioP1;P1;durP2;ratioP2;P2;SDS_P1;SDS_P2;PMS_P1;PMS_P2;Temp;Humidity;BMP_temperature;BMP_pressure;BME280_temperature;BME280_humidity;BME280_pressure;Samples;Min_cycle;Max_cycle;Signal;HPM_P1;HPM_P2
2022/04/19 00:00:39;;;;;;;;;15.25;10.75;;;;;13.89;59.33;101317.59;4971284;28;45401;-72
2022/04/19 00:03:05;;;;;;;;;8.00;8.00;;;;;13.85;58.58;101314.22;4971624;28;45296;-72
2022/04/19 00:05:32;;;;;;;;;14.50;8.75;;;;;13.80;59.36;101316.25;4970976;28;45447;-72
2022/04/19 00:07:58;;;;;;;;;13.25;10.50;;;;;13.76;59.32;101312.03;4971236;28;45338;-71
2022/04/19 00:10:26;;;;;;;;;9.00;7.00;;;;;13.74;59.22;101314.75;4973133;28;45354;-72
2022/04/19 00:12:51;;;;;;;;;6.50;6.00;;;;;13.72;59.33;101305.16;4972688;28;45798;-71
2022/04/19 00:15:17;;;;;;;;;12.75;9.50;;;;;13.71;59.33;101306.09;4971591;28;45332;-70
2022/04/19 00:17:43;;;;;;;;;9.50;7.00;;;;;13.69;59.29;101310.59;4970975;28;45906;-72
2022/04/19 00:20:09;;;;;;;;;9.75;9.25;;;;;13.67;59.72;101300.09;4971617;28;46448;-72
2022/04/19 00:22:34;;;;;;;;;9.25;8.25;;;;;13.65;59.08;101296.69;4971664;28;46718;-72
2022/04/19 00:24:59;;;;;;;;;11.25;7.00;;;;;13.62;59.15;101291.53;4971444;28;45537;-72
2022/04/19 00:27:25;;;;;;;;;11.25;5.75;;;;;13.59;59.29;101283.75;4971246;28;45570;-72
2022/04/19 00:29:53;;;;;;;;;6.00;5.00;;;;;13.58;59.27;101289.97;4970906;28;46027;-72
2022/04/19 00:32:19;;;;;;;;;11.75;7.75;;;;;13.57;59.64;101282.97;4970989;28;45386;-72
2022/04/19 00:34:46;;;;;;;;;9.00;6.25;;;;;13.56;59.39;101291.81;4971220;28;45443;-72
2022/04/19 00:37:12;;;;;;;;;11.50;7.00;;;;;13.56;59.61;101297.94;4972562;28;45411;-72
2022/04/19 00:39:37;;;;;;;;;6.50;6.00;;;;;13.55;59.45;101290.97;4970873;28;45637;-72
2022/04/19 00:42:03;;;;;;;;;6.25;5.50;;;;;13.55;59.55;101298.03;4970774;28;45804;-72
2022/04/19 00:44:28;;;;;;;;;11.50;7.25;;;;;13.52;59.47;101290.22;4971163;28;45426;-72
2022/04/19 00:46:54;;;;;;;;;7.25;6.00;;;;;13.49;59.19;101293.03;4971266;28;45385;-72
2022/04/19 00:49:20;;;;;;;;;7.75;4.75;;;;;13.44;58.91;101284.47;4968779;28;45370;-72
2022/04/19 00:51:46;;;;;;;;;7.50;5.75;;;;;13.42;58.93;101288.97;4970609;28;45342;-72
2022/04/19 00:54:13;;;;;;;;;4.50;4.00;;;;;13.38;59.12;101287.41;4970849;28;45481;-72
2022/04/19 00:56:40;;;;;;;;;7.25;6.00;;;;;13.36;59.00;101286.59;4970355;28;45415;-72
2022/04/19 00:59:05;;;;;;;;;6.00;4.00;;;;;13.31;58.77;101284.16;4970519;28;46986;-72
2022/04/19 01:01:31;;;;;;;;;5.50;4.00;;;;;13.26;58.66;101284.41;4972056;28;45359;-72
2022/04/19 01:03:58;;;;;;;;;4.75;4.00;;;;;13.24;58.30;101282.75;4970526;28;45639;-72
2022/04/19 01:06:23;;;;;;;;;4.75;4.00;;;;;13.20;58.52;101278.47;4970024;28;45489;-72
2022/04/19 01:08:48;;;;;;;;;6.00;4.00;;;;;13.16;58.62;101279.56;4970653;28;45567;-72
2022/04/19 01:14:02;;;;;;;;;6.25;4.75;;;;;13.10;59.07;101271.91;4970650;28;45932;-72
2022/04/19 01:16:28;;;;;;;;;4.00;4.00;;;;;13.03;58.58;101266.06;4971794;28;45481;-72
2022/04/19 01:18:53;;;;;;;;;5.75;4.00;;;;;13.06;58.58;101271.22;4971155;28;46310;-72
2022/04/19 01:21:19;;;;;;;;;4.50;4.25;;;;;13.01;58.80;101276.69;4970323;28;45321;-72
2022/04/19 01:23:44;;;;;;;;;7.75;3.00;;;;;13.02;58.95;101278.38;4970337;28;45390;-72
2022/04/19 01:26:09;;;;;;;;;6.00;3.00;;;;;12.98;58.36;101274.16;4970567;28;48064;-71
2022/04/19 01:28:34;;;;;;;;;4.67;3.67;;;;;12.95;58.55;101278.75;4970168;28;58939;-72
2022/04/19 01:31:00;;;;;;;;;3.75;3.00;;;;;12.92;58.83;101278.88;4971739;28;45382;-72
2022/04/19 01:33:25;;;;;;;;;4.50;4.50;;;;;12.86;58.43;101276.50;4970320;28;45466;-72
2022/04/19 01:35:51;;;;;;;;;4.75;4.00;;;;;12.80;58.47;101272.34;4969590;28;54803;-72
2022/04/19 01:38:16;;;;;;;;;3.00;2.25;;;;;12.78;58.49;101282.09;4970099;28;45442;-72
2022/04/19 01:40:41;;;;;;;;;6.75;4.00;;;;;12.75;58.49;101272.56;4969815;28;59209;-72
2022/04/19 01:43:07;;;;;;;;;3.50;3.50;;;;;12.72;58.46;101280.59;4970682;28;45358;-72
2022/04/19 01:45:34;;;;;;;;;3.00;3.00;;;;;12.71;57.84;101275.38;4976630;28;45565;-72
2022/04/19 01:48:00;;;;;;;;;7.75;4.00;;;;;12.65;57.77;101270.38;4969703;28;45839;-72
2022/04/19 01:50:27;;;;;;;;;4.50;2.25;;;;;12.59;58.15;101273.28;4969976;28;45394;-72
2022/04/19 01:52:57;;;;;;;;;2.00;2.00;;;;;12.58;57.72;101271.53;4955114;28;45284;-72
2022/04/19 01:55:23;;;;;;;;;3.75;3.75;;;;;12.50;57.66;101269.25;4968299;28;45429;-72
2022/04/19 01:57:57;;;;;;;;;6.75;3.25;;;;;12.50;57.74;101272.75;4968351;28;46226;-72
2022/04/19 02:00:25;;;;;;;;;2.00;1.50;;;;;12.47;57.54;101269.38;4969756;28;45808;-72
2022/04/19 02:02:51;;;;;;;;;3.00;3.00;;;;;12.44;57.99;101269.50;4970165;28;45340;-72
2022/04/19 02:05:17;;;;;;;;;2.50;2.00;;;;;12.43;57.75;101275.72;4969477;28;45334;-72
2022/04/19 02:07:44;;;;;;;;;5.00;1.75;;;;;12.38;57.86;101273.25;4970668;28;46445;-72
2022/04/19 02:10:12;;;;;;;;;4.00;4.00;;;;;12.35;58.20;101267.25;4974782;28;45345;-72
2022/04/19 02:12:38;;;;;;;;;3.00;3.00;;;;;12.34;57.92;101262.91;4972473;28;45488;-72
2022/04/19 02:15:05;;;;;;;;;2.00;2.00;;;;;12.29;57.76;101257.81;4972714;28;45360;-72
2022/04/19 02:17:30;;;;;;;;;4.00;4.00;;;;;12.25;58.00;101259.72;4972548;28;45599;-72
2022/04/19 02:19:59;;;;;;;;;4.75;3.50;;;;;12.23;57.62;101260.72;4971890;28;45391;-72
2022/04/19 02:22:25;;;;;;;;;2.25;2.25;;;;;12.19;58.17;101257.34;4974409;28;45229;-72
2022/04/19 02:24:50;;;;;;;;;3.25;3.25;;;;;12.17;57.84;101260.97;4973302;28;45283;-72
2022/04/19 02:27:16;;;;;;;;;3.50;3.00;;;;;12.16;58.18;101252.22;4972316;28;45454;-72
2022/04/19 02:29:41;;;;;;;;;4.00;2.25;;;;;12.14;57.97;101251.41;4972393;28;45402;-72
2022/04/19 02:32:06;;;;;;;;;3.25;3.00;;;;;12.12;57.94;101255.03;4972779;28;45519;-72
2022/04/19 02:34:33;;;;;;;;;2.00;2.00;;;;;12.09;57.91;101256.00;4973680;28;45278;-72
2022/04/19 02:36:58;;;;;;;;;4.00;2.50;;;;;12.08;57.77;101256.94;4973472;28;46967;-72
2022/04/19 02:39:23;;;;;;;;;3.00;3.00;;;;;12.01;57.91;101250.22;4971978;28;45512;-72
2022/04/19 02:41:50;;;;;;;;;5.00;3.75;;;;;12.01;57.50;101250.22;4972338;28;45307;-72
2022/04/19 02:44:16;;;;;;;;;2.25;1.50;;;;;11.99;57.31;101252.88;4972655;28;45588;-72
2022/04/19 02:46:41;;;;;;;;;2.25;2.00;;;;;11.95;57.34;101246.06;4972384;28;46484;-72
2022/04/19 02:49:06;;;;;;;;;3.00;3.00;;;;;11.96;57.29;101246.91;4974327;28;45500;-72
2022/04/19 02:51:32;;;;;;;;;3.33;1.67;;;;;11.92;56.99;101250.56;4971954;28;55706;-72
2022/04/19 02:53:58;;;;;;;;;1.75;1.75;;;;;11.90;57.44;101248.00;4972310;28;45429;-72
2022/04/19 02:56:23;;;;;;;;;3.00;2.00;;;;;11.88;57.43;101243.72;4972159;28;45414;-72
2022/04/19 02:58:48;;;;;;;;;2.00;2.00;;;;;11.85;57.36;101243.81;4971834;28;45580;-72
2022/04/19 03:01:15;;;;;;;;;5.00;1.00;;;;;11.83;57.47;101243.03;4973429;28;45677;-71
2022/04/19 03:03:40;;;;;;;;;1.50;1.50;;;;;11.81;57.19;101247.50;4972555;28;45556;-71
2022/04/19 03:06:07;;;;;;;;;2.75;2.75;;;;;11.75;57.24;101243.31;4971676;28;46192;-72
2022/04/19 03:08:34;;;;;;;;;3.25;3.25;;;;;11.77;57.57;101244.09;4971824;28;45816;-72
2022/04/19 03:11:00;;;;;;;;;3.50;2.00;;;;;11.73;57.79;101246.00;4972112;28;45519;-72
2022/04/19 03:13:27;;;;;;;;;3.75;3.00;;;;;11.73;57.81;101247.78;4973702;28;45433;-72
2022/04/19 03:15:54;;;;;;;;;3.00;2.25;;;;;11.70;57.85;101242.66;4973398;28;45437;-72
2022/04/19 03:18:19;;;;;;;;;6.25;3.25;;;;;11.70;57.74;101248.78;4971211;28;45919;-72
2022/04/19 03:20:46;;;;;;;;;5.25;2.50;;;;;11.68;57.87;101242.69;4971818;28;45298;-72
2022/04/19 03:28:40;;;;;;;;;3.25;2.75;;;;;11.62;57.75;101232.41;4971445;28;45836;-72
2022/04/19 03:31:07;;;;;;;;;4.00;3.50;;;;;11.62;58.21;101237.66;4973516;28;45472;-72
2022/04/19 03:33:32;;;;;;;;;4.75;3.00;;;;;11.61;58.20;101243.00;4971905;28;45442;-72
2022/04/19 03:35:59;;;;;;;;;5.75;3.00;;;;;11.58;58.16;101236.06;4969457;28;45354;-72
2022/04/19 03:38:24;;;;;;;;;4.00;2.25;;;;;11.55;58.33;101236.19;4974597;28;46579;-72
2022/04/19 03:40:50;;;;;;;;;4.25;2.50;;;;;11.55;58.59;101237.97;4971598;28;45556;-72
2022/04/19 03:43:16;;;;;;;;;5.00;3.00;;;;;11.49;58.73;101234.66;4972343;28;46339;-72
2022/04/19 03:45:41;;;;;;;;;2.50;2.50;;;;;11.52;58.73;101238.09;4972583;28;47010;-72
2022/04/19 03:48:07;;;;;;;;;1.00;1.00;;;;;11.49;58.74;101242.56;4976414;28;46637;-72
2022/04/19 03:50:33;;;;;;;;;2.25;2.25;;;;;11.46;58.79;101237.41;4971646;28;46310;-72
2022/04/19 03:52:58;;;;;;;;;5.75;3.75;;;;;11.45;58.76;101229.59;4971276;28;45419;-72
2022/04/19 03:55:24;;;;;;;;;3.00;2.75;;;;;11.43;58.73;101239.28;4972757;28;45703;-72
2022/04/19 03:57:49;;;;;;;;;5.00;3.00;;;;;11.40;58.86;101235.03;4971650;28;45692;-72
2022/04/19 04:00:15;;;;;;;;;3.00;2.75;;;;;11.38;58.94;101235.97;4971416;28;45448;-72
2022/04/19 04:02:40;;;;;;;;;4.00;2.25;;;;;11.32;58.64;101218.66;4971151;28;45436;-72
2022/04/19 04:05:06;;;;;;;;;8.25;3.00;;;;;11.33;59.11;101222.13;4970402;28;51592;-72
2022/04/19 04:07:32;;;;;;;;;4.00;3.00;;;;;11.29;58.93;101217.94;4972004;28;45440;-72
2022/04/19 04:09:57;;;;;;;;;3.00;3.00;;;;;11.27;58.96;101223.22;4972148;28;45450;-72
2022/04/19 04:12:23;;;;;;;;;5.00;2.67;;;;;11.22;59.40;101225.19;4988843;28;53370;-72
2022/04/19 04:14:48;;;;;;;;;2.50;2.50;;;;;11.20;59.41;101230.50;4970970;28;46617;-72
2022/04/19 04:17:14;;;;;;;;;2.75;2.75;;;;;11.18;59.44;101229.72;4969769;28;49162;-72
2022/04/19 04:19:40;;;;;;;;;2.75;2.00;;;;;11.16;59.30;101228.03;4971392;28;45390;-72
2022/04/19 04:22:06;;;;;;;;;2.50;2.50;;;;;11.15;59.87;101224.56;4973105;28;45528;-72
2022/04/19 04:24:32;;;;;;;;;4.50;4.00;;;;;11.14;59.34;101225.47;4969052;28;45492;-72
2022/04/19 04:26:57;;;;;;;;;2.25;2.00;;;;;11.11;59.88;101222.94;4971110;28;45472;-72
2022/04/19 04:29:22;;;;;;;;;2.00;2.00;;;;;11.12;59.71;101226.44;4969332;28;52921;-72
2022/04/19 04:31:47;;;;;;;;;4.50;3.75;;;;;11.11;60.15;101225.59;4970609;28;45788;-72
2022/04/19 04:34:13;;;;;;;;;5.50;3.75;;;;;11.09;59.67;101226.56;4972912;28;46116;-72
2022/04/19 04:36:38;;;;;;;;;6.25;3.00;;;;;11.08;59.86;101230.97;4970808;28;45529;-72
2022/04/19 04:39:04;;;;;;;;;3.00;2.00;;;;;11.06;59.98;101226.66;4970612;28;45311;-72
2022/04/19 04:41:29;;;;;;;;;5.00;3.00;;;;;11.07;60.15;101233.66;4970859;28;45437;-72
2022/04/19 04:43:54;;;;;;;;;3.00;3.00;;;;;11.05;59.88;101231.06;4971335;28;45966;-72
2022/04/19 04:51:47;;;;;;;;;3.50;3.50;;;;;10.98;59.89;101237.50;4970398;28;45605;-72
2022/04/19 04:54:12;;;;;;;;;4.00;3.50;;;;;10.98;60.16;101237.50;4970723;28;48623;-72
2022/04/19 04:56:38;;;;;;;;;4.50;3.00;;;;;10.97;60.31;101241.91;4970499;28;55486;-71
2022/04/19 04:59:03;;;;;;;;;4.00;4.00;;;;;10.96;60.43;101245.44;4970918;28;45292;-71
2022/04/19 05:01:28;;;;;;;;;3.75;2.00;;;;;10.98;60.49;101243.59;4972234;28;45343;-72
2022/04/19 05:03:54;;;;;;;;;4.75;3.75;;;;;10.99;60.57;101239.19;4970864;28;46367;-71
2022/04/19 05:06:19;;;;;;;;;7.25;3.00;;;;;11.03;60.41;101239.94;4970569;28;45288;-71
2022/04/19 05:08:44;;;;;;;;;3.00;3.00;;;;;11.09;60.82;101242.34;4970421;28;45447;-71
2022/04/19 05:11:10;;;;;;;;;2.00;2.00;;;;;11.17;60.74;101242.91;4970680;28;45233;-71
2022/04/19 05:13:35;;;;;;;;;4.00;2.50;;;;;11.25;60.60;101238.22;4971388;28;46284;-71
2022/04/19 05:16:01;;;;;;;;;5.50;3.00;;;;;11.37;60.50;101243.03;4971969;28;45543;-71
2022/04/19 05:18:27;;;;;;;;;3.75;3.00;;;;;11.47;60.66;101246.16;4969897;28;45228;-71
2022/04/19 05:20:53;;;;;;;;;4.50;3.00;;;;;11.59;60.22;101244.81;4970456;28;45439;-72
2022/04/19 05:23:20;;;;;;;;;5.25;3.75;;;;;11.69;60.01;101247.06;4969938;28;45896;-72
2022/04/19 05:25:45;;;;;;;;;7.75;4.75;;;;;11.80;60.16;101244.00;4971341;28;45528;-72
2022/04/19 05:28:10;;;;;;;;;3.50;2.00;;;;;11.89;59.79;101248.06;4971778;28;45642;-72
2022/04/19 05:30:36;;;;;;;;;5.00;3.00;;;;;11.97;59.24;101243.34;4969621;28;45349;-72
2022/04/19 05:33:02;;;;;;;;;4.50;3.00;;;;;12.01;59.58;101245.81;4969597;28;47102;-72
2022/04/19 05:35:27;;;;;;;;;3.25;2.00;;;;;12.10;59.44;101241.91;4968704;28;45355;-72
2022/04/19 05:37:54;;;;;;;;;3.75;1.75;;;;;12.15;59.32;101232.03;4969944;28;45209;-72
2022/04/19 05:40:19;;;;;;;;;6.50;3.50;;;;;12.28;59.03;101246.44;4967873;28;45553;-72
2022/04/19 05:42:44;;;;;;;;;3.25;3.00;;;;;12.36;59.07;101248.72;4970648;28;46410;-72
2022/04/19 05:45:10;;;;;;;;;2.00;2.00;;;;;12.46;59.30;101241.28;4972421;28;45516;-72
2022/04/19 05:47:35;;;;;;;;;5.50;3.75;;;;;12.57;59.27;101240.84;4972668;28;45299;-72
2022/04/19 05:50:00;;;;;;;;;4.75;3.00;;;;;12.71;58.97;101249.00;4970930;28;45524;-72
2022/04/19 05:52:26;;;;;;;;;5.50;4.00;;;;;12.83;59.08;101244.97;4973452;28;46243;-72
2022/04/19 05:54:51;;;;;;;;;3.75;3.75;;;;;12.97;58.96;101253.13;4972515;28;51104;-72
2022/04/19 05:57:16;;;;;;;;;3.75;3.25;;;;;13.09;58.56;101249.94;4973167;28;45386;-72
2022/04/19 05:59:42;;;;;;;;;4.25;4.25;;;;;13.16;58.46;101243.47;4972419;28;45311;-72
2022/04/19 06:04:54;;;;;;;;;5.00;5.00;;;;;13.25;57.82;101245.69;4969954;28;45980;-72
2022/04/19 06:07:32;;;;;;;;;4.75;4.75;;;;;13.26;58.30;101251.88;4995999;28;45662;-72
2022/04/19 06:09:58;;;;;;;;;3.00;3.00;;;;;13.25;58.20;101247.50;4975516;28;45395;-72
2022/04/19 06:12:24;;;;;;;;;4.75;3.00;;;;;13.24;58.48;101253.69;4987149;28;45431;-72
2022/04/19 06:14:49;;;;;;;;;7.50;4.00;;;;;13.26;58.14;101251.88;5001176;28;45435;-72
2022/04/19 06:17:21;;;;;;;;;5.75;4.00;;;;;13.26;58.16;101247.44;5021636;28;45513;-72
2022/04/19 06:19:46;;;;;;;;;5.00;2.25;;;;;13.29;58.08;101247.28;4975504;28;45835;-72
2022/04/19 06:22:13;;;;;;;;;4.50;4.50;;;;;13.32;57.81;101249.78;4984984;28;46001;-72
2022/04/19 06:24:38;;;;;;;;;6.50;3.25;;;;;13.38;58.19;101247.81;4992023;28;45864;-72
2022/04/19 06:27:04;;;;;;;;;5.50;4.00;;;;;13.45;58.37;101249.22;4972695;28;45442;-72
2022/04/19 06:29:29;;;;;;;;;4.00;3.00;;;;;13.49;57.84;101248.16;4970450;28;45771;-70
2022/04/19 06:31:55;;;;;;;;;11.75;7.00;;;;;13.56;58.00;101241.63;4971580;28;53804;-72
2022/04/19 06:34:20;;;;;;;;;6.50;5.25;;;;;13.60;58.04;101252.94;4969509;28;45689;-72
2022/04/19 06:36:46;;;;;;;;;3.50;3.50;;;;;13.69;57.89;101253.34;4955080;28;45360;-72
2022/04/19 06:39:12;;;;;;;;;2.00;2.00;;;;;13.73;57.80;101252.28;4970689;28;45303;-72
2022/04/19 06:41:37;;;;;;;;;8.50;3.25;;;;;13.79;57.92;101251.97;4966764;28;45518;-72
2022/04/19 06:44:03;;;;;;;;;8.00;4.50;;;;;13.79;57.72;101244.06;4954696;28;46038;-72
2022/04/19 06:46:29;;;;;;;;;15.25;8.25;;;;;13.88;57.52;101249.81;4970920;28;45489;-72
2022/04/19 06:48:54;;;;;;;;;5.75;3.00;;;;;13.95;57.65;101252.09;5001203;28;45547;-72
2022/04/19 06:51:20;;;;;;;;;4.75;4.75;;;;;14.04;57.65;101248.13;4983546;27;57359;-72
2022/04/19 06:53:46;;;;;;;;;5.50;3.25;;;;;14.13;57.24;101241.53;4968709;28;45483;-71
2022/04/19 06:56:11;;;;;;;;;8.50;5.00;;;;;14.16;57.71;101239.59;4969117;28;45419;-73
2022/04/19 06:58:39;;;;;;;;;3.25;3.25;;;;;14.29;57.48;101255.69;4970281;28;45409;-72
2022/04/19 07:01:04;;;;;;;;;9.00;6.25;;;;;14.41;57.28;101254.22;4969476;28;45420;-72
2022/04/19 07:03:30;;;;;;;;;3.00;2.75;;;;;14.48;57.03;101239.81;4970674;28;45759;-72
2022/04/19 07:05:55;;;;;;;;;5.50;4.00;;;;;14.55;56.22;101243.84;4964326;28;45504;-73
2022/04/19 07:08:20;;;;;;;;;5.75;5.75;;;;;14.51;56.68;101242.28;4970780;28;52296;-72
2022/04/19 07:10:46;;;;;;;;;5.75;4.25;;;;;14.55;56.94;101242.03;4965975;28;47480;-72
2022/04/19 07:13:11;;;;;;;;;7.50;4.75;;;;;14.59;57.17;101240.97;4956378;28;45447;-72
2022/04/19 07:15:36;;;;;;;;;12.00;6.00;;;;;14.70;56.40;101243.03;4968777;28;45444;-72
2022/04/19 07:18:02;;;;;;;;;7.75;5.00;;;;;14.78;56.51;101247.94;4965451;28;45491;-72
2022/04/19 07:28:39;;;;;;;;;7.75;4.75;;;;;15.13;55.70;101251.34;4952861;28;45676;-72
2022/04/19 07:31:05;;;;;;;;;7.25;5.50;;;;;15.19;55.74;101243.09;4966964;28;46107;-73
2022/04/19 07:33:31;;;;;;;;;8.00;5.00;;;;;15.26;55.56;101241.81;4973135;28;45469;-73
2022/04/19 07:35:57;;;;;;;;;7.25;6.00;;;;;15.30;55.20;101246.03;4975726;28;45528;-74
2022/04/19 07:38:23;;;;;;;;;10.50;5.50;;;;;15.37;54.89;101235.94;4981845;28;45621;-72
2022/04/19 07:40:49;;;;;;;;;7.50;4.25;;;;;15.43;54.66;101232.94;4972114;28;46053;-72
2022/04/19 07:43:15;;;;;;;;;7.50;4.75;;;;;15.61;54.35;101233.75;4969415;28;45845;-72
2022/04/19 07:45:40;;;;;;;;;5.50;5.50;;;;;15.77;54.45;101229.31;4970788;28;45472;-73
2022/04/19 07:48:06;;;;;;;;;12.75;6.25;;;;;15.92;54.56;101240.81;4970387;28;45480;-72
2022/04/19 07:50:34;;;;;;;;;7.50;5.50;;;;;16.06;53.90;101235.56;4973475;28;46164;-72
2022/04/19 07:53:00;;;;;;;;;8.00;6.00;;;;;16.18;53.67;101234.88;4985082;28;45620;-72
2022/04/19 07:55:27;;;;;;;;;6.00;5.50;;;;;16.36;53.66;101240.03;4969406;28;45465;-72
2022/04/19 07:57:53;;;;;;;;;9.00;5.50;;;;;16.55;53.83;101242.44;4968189;28;45224;-72
2022/04/19 08:00:19;;;;;;;;;8.75;7.50;;;;;16.71;53.42;101237.97;4967160;28;45586;-72
2022/04/19 08:02:45;;;;;;;;;6.50;6.50;;;;;16.94;53.14;101233.91;4972545;28;45748;-72
2022/04/19 08:05:11;;;;;;;;;9.00;5.00;;;;;17.26;52.71;101233.69;4969094;28;45517;-73
2022/04/19 08:07:36;;;;;;;;;5.25;3.75;;;;;17.37;51.45;101237.38;4970920;28;45562;-72
2022/04/19 08:10:03;;;;;;;;;6.75;5.25;;;;;17.56;51.37;101237.06;4972363;28;46848;-72
2022/04/19 08:12:28;;;;;;;;;9.25;7.00;;;;;17.73;50.75;101238.66;4969837;28;45408;-73
2022/04/19 08:14:55;;;;;;;;;7.75;6.25;;;;;17.96;50.33;101219.41;4971329;28;45391;-72
2022/04/19 08:17:21;;;;;;;;;8.00;6.00;;;;;18.33;49.69;101237.38;4969716;28;45420;-73
2022/04/19 08:19:46;;;;;;;;;6.25;6.00;;;;;18.65;49.55;101221.88;4970601;28;45549;-72
2022/04/19 08:22:12;;;;;;;;;6.50;5.00;;;;;18.89;48.93;101220.19;4963367;28;45398;-73
2022/04/19 08:24:37;;;;;;;;;7.25;6.00;;;;;19.17;48.46;101218.25;4976874;28;45390;-72
2022/04/19 08:27:04;;;;;;;;;9.75;6.00;;;;;19.49;48.16;101218.59;4971287;28;45618;-73
2022/04/19 08:29:30;;;;;;;;;7.00;5.00;;;;;19.78;47.13;101224.47;4971117;28;46190;-72
2022/04/19 08:31:55;;;;;;;;;7.50;6.00;;;;;20.16;46.69;101218.97;4971239;28;45432;-73
2022/04/19 08:34:21;;;;;;;;;5.75;4.25;;;;;20.41;45.72;101215.28;4982180;28;47198;-72
2022/04/19 08:36:46;;;;;;;;;6.75;4.50;;;;;20.74;45.48;101219.03;4997803;28;45401;-73
2022/04/19 08:39:12;;;;;;;;;4.50;3.50;;;;;21.39;45.31;101220.97;4973870;28;46871;-72
2022/04/19 08:41:39;;;;;;;;;5.00;4.00;;;;;22.02;43.72;101218.47;5002153;28;45375;-72
2022/04/19 08:44:05;;;;;;;;;5.25;4.00;;;;;22.83;44.03;101220.47;4970970;28;45619;-72
2022/04/19 08:46:37;;;;;;;;;5.25;4.25;;;;;24.02;42.13;101216.19;4972069;28;45331;-73
2022/04/19 08:49:04;;;;;;;;;4.50;2.50;;;;;24.82;40.88;101213.13;4971798;28;45354;-72
2022/04/19 08:51:34;;;;;;;;;5.50;3.75;;;;;25.47;39.46;101218.50;4969328;28;45528;-73
2022/04/19 08:59:29;;;;;;;;;5.00;5.00;;;;;30.67;35.55;101205.56;4970641;28;45409;-73
2022/04/19 09:01:54;;;;;;;;;6.50;3.50;;;;;32.78;34.25;101199.09;4970710;28;45529;-73
2022/04/19 09:04:23;;;;;;;;;5.00;4.00;;;;;34.61;30.44;101209.00;4972899;28;45735;-73
2022/04/19 09:06:54;;;;;;;;;6.25;4.00;;;;;36.08;28.72;101204.63;4969227;28;45535;-73
2022/04/19 09:09:27;;;;;;;;;3.75;2.00;;;;;37.76;27.27;101206.94;4993323;28;46224;-72
2022/04/19 09:12:02;;;;;;;;;3.00;3.00;;;;;39.65;25.91;101207.41;5009071;27;45603;-73
2022/04/19 09:14:27;;;;;;;;;3.75;3.25;;;;;41.03;23.96;101209.56;4970289;28;45268;-73
2022/04/19 09:17:04;;;;;;;;;5.00;4.00;;;;;41.34;23.00;101201.66;4961820;28;45405;-73
2022/04/19 09:19:29;;;;;;;;;4.75;4.00;;;;;41.50;22.08;101209.03;4972187;28;45608;-73
2022/04/19 09:21:54;;;;;;;;;4.25;3.00;;;;;41.95;22.09;101210.59;4980205;28;48306;-73
2022/04/19 09:24:21;;;;;;;;;5.75;4.75;;;;;41.37;21.33;101206.69;4973577;28;45528;-73
2022/04/19 09:26:50;;;;;;;;;7.00;6.00;;;;;39.93;21.41;101197.44;4989672;28;45535;-73
2022/04/19 09:29:21;;;;;;;;;5.50;4.25;;;;;38.44;21.21;101201.00;4972124;28;45948;-73
2022/04/19 09:31:50;;;;;;;;;7.50;5.50;;;;;37.58;22.48;101194.13;4972980;28;45556;-73
2022/04/19 09:34:33;;;;;;;;;4.25;4.00;;;;;36.61;22.45;101190.47;4975321;28;45367;-73
2022/04/19 09:37:10;;;;;;;;;3.75;3.25;;;;;35.80;23.12;101198.44;4986443;28;45386;-73
2022/04/19 09:39:37;;;;;;;;;8.00;5.50;;;;;35.25;24.10;101197.28;4972944;28;47241;-72
2022/04/19 09:42:07;;;;;;;;;6.00;4.75;;;;;34.73;24.06;101197.25;4973290;28;45565;-71
2022/04/19 09:44:40;;;;;;;;;5.50;5.00;;;;;34.40;24.41;101189.06;4971943;28;45388;-73
2022/04/19 09:47:11;;;;;;;;;5.25;4.25;;;;;34.35;24.46;101180.69;4971133;28;45619;-72
2022/04/19 09:49:51;;;;;;;;;4.25;3.75;;;;;34.40;24.58;101182.75;4978169;28;46211;-72
2022/04/19 09:52:22;;;;;;;;;5.75;4.50;;;;;34.41;24.02;101184.47;4977684;28;45674;-71
2022/04/19 09:55:03;;;;;;;;;5.50;5.50;;;;;34.25;24.79;101178.41;4970636;28;45580;-72
2022/04/19 09:57:33;;;;;;;;;6.50;5.25;;;;;33.97;24.51;101175.88;4968071;28;45531;-72
2022/04/19 09:59:59;;;;;;;;;6.75;6.75;;;;;34.00;24.42;101186.38;4974685;28;46844;-73
2022/04/19 10:08:13;;;;;;;;;6.75;6.00;;;;;34.60;24.94;101169.97;4980975;28;45499;-72
2022/04/19 10:10:40;;;;;;;;;7.00;5.50;;;;;34.81;24.24;101162.56;4995721;28;46202;-72
2022/04/19 10:13:06;;;;;;;;;7.25;6.75;;;;;34.37;23.71;101164.94;5036633;28;45972;-72
2022/04/19 10:15:32;;;;;;;;;5.50;5.50;;;;;34.04;24.36;101162.25;4968765;27;45673;-72
2022/04/19 10:17:58;;;;;;;;;9.25;9.00;;;;;33.61;23.98;101151.69;4966279;28;45508;-72
2022/04/19 10:20:31;;;;;;;;;6.50;6.50;;;;;32.93;24.16;101142.66;5038066;28;46091;-72
2022/04/19 10:23:01;;;;;;;;;6.75;5.75;;;;;32.63;24.95;101142.09;4965946;28;45570;-72
2022/04/19 10:25:36;;;;;;;;;8.00;8.00;;;;;32.33;25.48;101141.44;4987352;28;45673;-72
2022/04/19 10:28:04;;;;;;;;;10.75;8.00;;;;;32.01;25.20;101132.84;4964606;28;45628;-72
2022/04/19 10:30:33;;;;;;;;;9.25;7.00;;;;;31.59;25.12;101134.53;4969133;28;45550;-71
2022/04/19 10:32:58;;;;;;;;;7.00;7.00;;;;;31.16;25.34;101133.59;4964383;28;45485;-72
2022/04/19 10:35:24;;;;;;;;;7.50;6.50;;;;;30.89;26.10;101141.41;4957170;28;45487;-72
2022/04/19 10:38:21;;;;;;;;;10.75;7.00;;;;;30.71;26.44;101143.69;4965798;28;45553;-72
2022/04/19 10:40:51;;;;;;;;;10.00;8.00;;;;;30.44;26.45;101136.19;4971167;28;46591;-72
2022/04/19 10:43:16;;;;;;;;;9.00;8.50;;;;;30.33;27.09;101142.88;4969790;28;45366;-72
2022/04/19 10:45:46;;;;;;;;;8.75;8.00;;;;;30.27;27.34;101143.63;4970062;28;45356;-72
2022/04/19 10:48:14;;;;;;;;;9.25;8.75;;;;;29.99;27.03;101133.34;4971753;28;45514;-72
2022/04/19 10:50:40;;;;;;;;;8.50;7.50;;;;;29.86;27.24;101133.97;4967718;28;46975;-72
2022/04/19 10:53:09;;;;;;;;;10.50;10.50;;;;;29.72;27.69;101142.91;4968413;28;45479;-72
2022/04/19 10:55:36;;;;;;;;;10.75;9.75;;;;;29.54;27.54;101134.22;4973706;28;45238;-72
2022/04/19 10:58:17;;;;;;;;;10.50;10.00;;;;;29.27;27.62;101124.72;4969132;28;45411;-73
2022/04/19 11:00:51;;;;;;;;;14.25;11.00;;;;;28.57;28.04;101123.66;4963259;28;46348;-73
2022/04/19 11:03:26;;;;;;;;;13.75;9.50;;;;;28.10;28.29;101118.16;4964895;28;45873;-72
2022/04/19 11:05:53;;;;;;;;;8.00;8.00;;;;;28.03;29.32;101115.31;4965873;28;45343;-74
2022/04/19 11:08:24;;;;;;;;;10.00;8.50;;;;;27.98;29.16;101117.69;4971191;28;45454;-72
2022/04/19 11:11:21;;;;;;;;;13.25;10.75;;;;;27.94;29.04;101104.69;4956039;28;46734;-72
2022/04/19 11:14:24;;;;;;;;;11.25;10.25;;;;;27.76;29.32;101105.69;4959847;28;45481;-72
2022/04/19 11:16:52;;;;;;;;;13.25;11.00;;;;;27.68;29.41;101105.66;4967143;28;45441;-72
2022/04/19 11:19:25;;;;;;;;;15.25;10.75;;;;;27.42;29.40;101099.56;4970737;28;45749;-72
2022/04/19 11:21:53;;;;;;;;;12.25;10.75;;;;;27.28;29.63;101099.19;4971005;28;47249;-72
2022/04/19 11:24:56;;;;;;;;;13.25;11.00;;;;;27.11;29.79;101102.03;4961886;28;45311;-72
2022/04/19 11:27:22;;;;;;;;;18.00;13.00;;;;;26.70;30.22;101099.16;4964241;28;46639;-73
2022/04/19 11:29:49;;;;;;;;;13.25;12.00;;;;;26.51;30.40;101086.78;4964794;28;45353;-74
2022/04/19 11:32:25;;;;;;;;;15.75;12.00;;;;;26.45;30.63;101087.41;4969076;28;46545;-74
2022/04/19 11:35:01;;;;;;;;;14.75;13.75;;;;;26.43;30.96;101092.97;4962610;28;45312;-71
2022/04/19 11:37:26;;;;;;;;;16.25;13.50;;;;;26.40;30.97;101092.41;4967808;28;45470;-71
2022/04/19 11:48:10;;;;;;;;;14.25;13.50;;;;;26.90;31.33;101092.50;4983676;28;45394;-73
2022/04/19 11:50:36;;;;;;;;;15.75;14.25;;;;;26.68;31.17;101095.81;4965941;28;45501;-70
2022/04/19 11:53:01;;;;;;;;;17.50;14.50;;;;;26.57;31.35;101096.91;4978987;28;47124;-73
2022/04/19 11:55:27;;;;;;;;;14.50;14.00;;;;;26.52;31.46;101094.72;4972418;28;45288;-72
2022/04/19 11:58:09;;;;;;;;;15.50;13.75;;;;;26.26;31.68;101085.78;4972023;28;45468;-72
2022/04/19 12:00:35;;;;;;;;;13.25;11.25;;;;;26.03;31.50;101088.97;4969925;28;45496;-72
2022/04/19 12:03:04;;;;;;;;;15.00;12.25;;;;;25.88;31.73;101093.25;4970753;28;46287;-71
2022/04/19 12:05:30;;;;;;;;;14.75;13.25;;;;;25.71;32.07;101091.41;4970822;28;45365;-72
2022/04/19 12:07:56;;;;;;;;;19.25;12.75;;;;;25.51;31.90;101091.56;4970403;28;45519;-72